sensor_id;sensor_type;location;lat;lon;timestamp;pressure;altitude;pressure_sealevel;temperature;humidity
21449;BME280;10885;52.830;13.788;2022-10-16T05:38:50;100918.66;;;13.92;74.18
21449;BME280;10885;52.830;13.788;2022-10-16T05:44:11;100929.91;;;13.95;73.93
21449;BME280;10885;52.830;13.788;2022-10-16T05:49:32;100940.22;;;13.95;74.26
21449;BME280;10885;52.830;13.788;2022-10-16T05:54:58;100948.78;;;13.93;74.06
21449;BME280;10885;52.830;13.788;2022-10-16T06:00:19;100947.09;;;13.94;73.93
21449;BME280;10885;52.830;13.788;2022-10-16T06:05:40;100954.91;;;13.96;73.72
21449;BME280;10885;52.830;13.788;2022-10-16T06:11:11;100948.88;;;13.95;74.29
21449;BME280;10885;52.830;13.788;2022-10-16T06:16:34;100960.44;;;14.03;73.89
21449;BME280;10885;52.830;13.788;2022-10-16T06:21:55;100959.84;;;14.09;73.71
21449;BME280;10885;52.830;13.788;2022-10-16T06:27:18;100966.09;;;14.14;73.73
21449;BME280;10885;52.830;13.788;2022-10-16T06:32:39;100975.19;;;14.24;73.68
21449;BME280;10885;52.830;13.788;2022-10-16T06:38:00;100974.09;;;14.37;73.86
21449;BME280;10885;52.830;13.788;2022-10-16T06:43:20;100975.94;;;14.57;73.49
21449;BME280;10885;52.830;13.788;2022-10-16T06:48:42;100983.97;;;14.63;73.26
21449;BME280;10885;52.830;13.788;2022-10-16T06:54:03;101000.34;;;14.64;73.17
21449;BME280;10885;52.830;13.788;2022-10-16T06:59:24;101008.03;;;14.62;73.28
21449;BME280;10885;52.830;13.788;2022-10-16T07:04:45;101015.75;;;14.62;73.22
21449;BME280;10885;52.830;13.788;2022-10-16T07:10:06;101023.19;;;14.56;73.14
21449;BME280;10885;52.830;13.788;2022-10-16T07:15:27;101029.53;;;14.63;72.99
21449;BME280;10885;52.830;13.788;2022-10-16T07:20:48;101017.66;;;14.84;72.83
21449;BME280;10885;52.830;13.788;2022-10-16T07:26:09;101038.03;;;14.98;72.72
21449;BME280;10885;52.830;13.788;2022-10-16T07:31:31;101056.09;;;15.16;72.33
21449;BME280;10885;52.830;13.788;2022-10-16T07:36:52;101061.78;;;15.26;71.97
21449;BME280;10885;52.830;13.788;2022-10-16T07:42:12;101055.44;;;15.39;72.51
21449;BME280;10885;52.830;13.788;2022-10-16T07:47:33;101045.38;;;15.45;71.77
21449;BME280;10885;52.830;13.788;2022-10-16T07:52:54;101050.91;;;15.53;71.94
21449;BME280;10885;52.830;13.788;2022-10-16T07:58:15;101070.84;;;15.75;71.43
21449;BME280;10885;52.830;13.788;2022-10-16T08:03:36;101062.00;;;15.70;71.51
21449;BME280;10885;52.830;13.788;2022-10-16T08:08:57;101061.97;;;15.88;71.20
21449;BME280;10885;52.830;13.788;2022-10-16T08:14:19;101059.56;;;15.93;71.02
21449;BME280;10885;52.830;13.788;2022-10-16T08:19:40;101057.50;;;16.05;70.94
21449;BME280;10885;52.830;13.788;2022-10-16T08:25:00;101069.72;;;16.49;70.56
21449;BME280;10885;52.830;13.788;2022-10-16T08:30:23;101074.44;;;16.39;70.30
21449;BME280;10885;52.830;13.788;2022-10-16T08:35:51;101075.13;;;16.14;70.56
21449;BME280;10885;52.830;13.788;2022-10-16T08:47:15;101071.16;;;16.22;70.80
21449;BME280;10885;52.830;13.788;2022-10-16T08:52:40;101082.44;;;16.45;70.64
21449;BME280;10885;52.830;13.788;2022-10-16T08:58:02;101087.03;;;16.73;70.41
21449;BME280;10885;52.830;13.788;2022-10-16T09:20:49;101103.94;;;18.23;68.55
21449;BME280;10885;52.830;13.788;2022-10-16T09:26:12;101097.31;;;18.84;67.67
21449;BME280;10885;52.830;13.788;2022-10-16T09:31:36;101107.66;;;18.57;67.21
21449;BME280;10885;52.830;13.788;2022-10-16T09:36:59;101110.59;;;18.16;67.39
21449;BME280;10885;52.830;13.788;2022-10-16T09:42:34;101104.22;;;18.32;67.70
21449;BME280;10885;52.830;13.788;2022-10-16T09:47:56;101129.47;;;19.15;67.42
21449;BME280;10885;52.830;13.788;2022-10-16T09:53:17;101117.75;;;19.29;66.69
21449;BME280;10885;52.830;13.788;2022-10-16T09:58:43;101132.53;;;19.30;66.08
21449;BME280;10885;52.830;13.788;2022-10-16T10:04:06;101129.16;;;19.63;65.72
21449;BME280;10885;52.830;13.788;2022-10-16T10:09:32;101134.47;;;19.66;65.47
21449;BME280;10885;52.830;13.788;2022-10-16T10:15:11;101125.97;;;20.02;65.03
21449;BME280;10885;52.830;13.788;2022-10-16T10:20:34;101141.06;;;20.15;64.53
21449;BME280;10885;52.830;13.788;2022-10-16T10:26:11;101142.25;;;19.66;64.81
21449;BME280;10885;52.830;13.788;2022-10-16T10:31:50;101154.75;;;20.08;64.55
21449;BME280;10885;52.830;13.788;2022-10-16T10:54:15;101155.47;;;20.34;63.55
21449;BME280;10885;52.830;13.788;2022-10-16T11:10:50;101174.59;;;21.41;62.21
21449;BME280;10885;52.830;13.788;2022-10-16T11:16:20;101178.34;;;21.16;62.11
21449;BME280;10885;52.830;13.788;2022-10-16T11:21:51;101178.63;;;21.28;62.15
21449;BME280;10885;52.830;13.788;2022-10-16T11:27:18;101175.63;;;21.10;61.71
21449;BME280;10885;52.830;13.788;2022-10-16T11:38:55;101174.41;;;20.95;61.95
21449;BME280;10885;52.830;13.788;2022-10-16T11:44:57;101164.44;;;21.52;61.17
21449;BME280;10885;52.830;13.788;2022-10-16T11:50:34;101157.94;;;21.74;60.98
21449;BME280;10885;52.830;13.788;2022-10-16T11:55:58;101161.66;;;21.85;60.93
21449;BME280;10885;52.830;13.788;2022-10-16T12:01:25;101168.41;;;22.19;60.10
21449;BME280;10885;52.830;13.788;2022-10-16T12:12:42;101183.66;;;22.42;59.42
21449;BME280;10885;52.830;13.788;2022-10-16T12:18:21;101184.56;;;22.44;59.57
21449;BME280;10885;52.830;13.788;2022-10-16T12:23:49;101196.88;;;22.51;59.60
21449;BME280;10885;52.830;13.788;2022-10-16T12:34:41;101189.81;;;22.96;61.14
21449;BME280;10885;52.830;13.788;2022-10-16T12:40:28;101197.88;;;23.66;60.25
21449;BME280;10885;52.830;13.788;2022-10-16T12:56:58;101212.03;;;25.66;57.07
21449;BME280;10885;52.830;13.788;2022-10-16T13:25:32;101236.53;;;23.26;54.35
21449;BME280;10885;52.830;13.788;2022-10-16T13:31:00;101252.53;;;22.94;55.52
21449;BME280;10885;52.830;13.788;2022-10-16T13:36:24;101261.94;;;21.98;56.24
21449;BME280;10885;52.830;13.788;2022-10-16T13:41:57;101266.88;;;21.46;57.19
21449;BME280;10885;52.830;13.788;2022-10-16T13:47:26;101271.13;;;21.08;58.12
21449;BME280;10885;52.830;13.788;2022-10-16T13:52:48;101272.91;;;20.75;58.36
21449;BME280;10885;52.830;13.788;2022-10-16T13:58:14;101273.00;;;20.48;59.33
21449;BME280;10885;52.830;13.788;2022-10-16T14:03:35;101273.91;;;20.50;59.31
21449;BME280;10885;52.830;13.788;2022-10-16T14:09:05;101275.72;;;20.53;59.55
21449;BME280;10885;52.830;13.788;2022-10-16T14:20:26;101282.19;;;20.99;59.34
21449;BME280;10885;52.830;13.788;2022-10-16T14:25:49;101293.72;;;21.07;58.87
21449;BME280;10885;52.830;13.788;2022-10-16T14:36:46;101304.13;;;20.74;58.88
21449;BME280;10885;52.830;13.788;2022-10-16T14:42:14;101309.78;;;20.59;59.50
21449;BME280;10885;52.830;13.788;2022-10-16T14:47:53;101317.75;;;20.35;58.93
21449;BME280;10885;52.830;13.788;2022-10-16T14:53:15;101323.63;;;20.27;59.65
21449;BME280;10885;52.830;13.788;2022-10-16T14:58:36;101319.34;;;20.30;59.60
21449;BME280;10885;52.830;13.788;2022-10-16T15:03:57;101331.44;;;20.27;59.65
21449;BME280;10885;52.830;13.788;2022-10-16T15:09:18;101339.84;;;20.19;59.70
21449;BME280;10885;52.830;13.788;2022-10-16T15:14:39;101349.81;;;20.05;60.19
21449;BME280;10885;52.830;13.788;2022-10-16T15:19:59;101350.31;;;19.92;60.16
21449;BME280;10885;52.830;13.788;2022-10-16T15:30:52;101353.41;;;19.54;60.64
21449;BME280;10885;52.830;13.788;2022-10-16T15:36:13;101353.50;;;19.32;60.76
21449;BME280;10885;52.830;13.788;2022-10-16T15:41:34;101363.19;;;19.10;61.05
21449;BME280;10885;52.830;13.788;2022-10-16T15:46:55;101366.72;;;18.88;61.30
21449;BME280;10885;52.830;13.788;2022-10-16T15:52:17;101377.97;;;18.66;61.44
21449;BME280;10885;52.830;13.788;2022-10-16T15:57:38;101391.16;;;18.48;61.85
21449;BME280;10885;52.830;13.788;2022-10-16T16:03:01;101399.09;;;18.28;62.18
21449;BME280;10885;52.830;13.788;2022-10-16T16:08:22;101412.16;;;18.09;62.39
21449;BME280;10885;52.830;13.788;2022-10-16T16:13:43;101413.25;;;17.93;62.42
21449;BME280;10885;52.830;13.788;2022-10-16T16:19:05;101414.94;;;17.72;63.04
21449;BME280;10885;52.830;13.788;2022-10-16T16:24:31;101419.97;;;17.47;63.18
21449;BME280;10885;52.830;13.788;2022-10-16T16:29:52;101430.53;;;17.33;63.39
21449;BME280;10885;52.830;13.788;2022-10-16T16:35:14;101442.63;;;17.13;64.03
21449;BME280;10885;52.830;13.788;2022-10-16T16:40:34;101463.56;;;16.98;64.20
21449;BME280;10885;52.830;13.788;2022-10-16T16:45:55;101466.41;;;16.84;64.04
21449;BME280;10885;52.830;13.788;2022-10-16T16:51:18;101480.50;;;16.54;64.55
21449;BME280;10885;52.830;13.788;2022-10-16T16:56:40;101482.63;;;16.44;64.85
21449;BME280;10885;52.830;13.788;2022-10-16T17:02:03;101496.75;;;16.33;65.21
21449;BME280;10885;52.830;13.788;2022-10-16T17:07:24;101511.09;;;16.26;65.21
21449;BME280;10885;52.830;13.788;2022-10-16T17:12:48;101524.59;;;16.21;65.22
21449;BME280;10885;52.830;13.788;2022-10-16T17:18:09;101525.34;;;16.18;65.30
21449;BME280;10885;52.830;13.788;2022-10-16T17:23:30;101528.94;;;16.04;65.19
21449;BME280;10885;52.830;13.788;2022-10-16T17:28:57;101543.78;;;15.90;65.55
21449;BME280;10885;52.830;13.788;2022-10-16T17:34:18;101557.09;;;15.81;65.74
21449;BME280;10885;52.830;13.788;2022-10-16T17:39:39;101562.84;;;15.76;66.03
21449;BME280;10885;52.830;13.788;2022-10-16T17:45:00;101565.34;;;15.74;65.63
21449;BME280;10885;52.830;13.788;2022-10-16T17:50:21;101577.53;;;15.60;65.79
21449;BME280;10885;52.830;13.788;2022-10-16T17:55:43;101581.00;;;15.44;66.01
21449;BME280;10885;52.830;13.788;2022-10-16T18:01:15;101580.16;;;15.29;66.20
21449;BME280;10885;52.830;13.788;2022-10-16T18:06:38;101587.97;;;15.14;66.88
21449;BME280;10885;52.830;13.788;2022-10-16T18:11:59;101580.16;;;14.98;66.79
21449;BME280;10885;52.830;13.788;2022-10-16T18:17:20;101574.19;;;14.67;66.68
21449;BME280;10885;52.830;13.788;2022-10-16T18:22:41;101593.75;;;14.49;67.56
21449;BME280;10885;52.830;13.788;2022-10-16T18:28:02;101603.88;;;14.46;67.41
21449;BME280;10885;52.830;13.788;2022-10-16T18:33:24;101613.38;;;14.32;67.60
21449;BME280;10885;52.830;13.788;2022-10-16T18:38:45;101631.34;;;14.16;67.77
21449;BME280;10885;52.830;13.788;2022-10-16T18:44:07;101625.63;;;14.06;68.21
21449;BME280;10885;52.830;13.788;2022-10-16T18:49:30;101635.72;;;13.88;68.30
21449;BME280;10885;52.830;13.788;2022-10-16T18:54:54;101652.25;;;13.77;68.23
21449;BME280;10885;52.830;13.788;2022-10-16T19:00:15;101652.97;;;13.61;68.12
21449;BME280;10885;52.830;13.788;2022-10-16T19:05:36;101657.28;;;13.47;68.88
21449;BME280;10885;52.830;13.788;2022-10-16T19:11:02;101664.69;;;13.43;68.94
21449;BME280;10885;52.830;13.788;2022-10-16T19:16:26;101662.91;;;13.28;68.83
21449;BME280;10885;52.830;13.788;2022-10-16T19:21:48;101651.22;;;13.20;68.87
21449;BME280;10885;52.830;13.788;2022-10-16T19:27:15;101681.63;;;13.12;69.13
21449;BME280;10885;52.830;13.788;2022-10-16T19:32:36;101700.34;;;13.10;69.32
21449;BME280;10885;52.830;13.788;2022-10-16T19:37:57;101679.63;;;12.95;69.39
21449;BME280;10885;52.830;13.788;2022-10-16T19:43:18;101680.22;;;12.91;69.41
21449;BME280;10885;52.830;13.788;2022-10-16T19:48:39;101679.16;;;12.87;69.50
21449;BME280;10885;52.830;13.788;2022-10-16T19:54:03;101702.81;;;12.82;69.50
21449;BME280;10885;52.830;13.788;2022-10-16T19:59:24;101700.81;;;12.78;69.62
21449;BME280;10885;52.830;13.788;2022-10-16T20:04:45;101709.13;;;12.73;69.66
21449;BME280;10885;52.830;13.788;2022-10-16T20:10:06;101717.72;;;12.74;69.59
21449;BME280;10885;52.830;13.788;2022-10-16T20:15:28;101714.16;;;12.72;69.21
21449;BME280;10885;52.830;13.788;2022-10-16T20:20:48;101725.63;;;12.77;69.42
21449;BME280;10885;52.830;13.788;2022-10-16T20:26:10;101735.16;;;12.78;69.52
21449;BME280;10885;52.830;13.788;2022-10-16T20:31:32;101741.06;;;12.77;69.41
21449;BME280;10885;52.830;13.788;2022-10-16T20:36:53;101742.03;;;12.66;69.57
21449;BME280;10885;52.830;13.788;2022-10-16T20:42:14;101756.72;;;12.55;69.68
21449;BME280;10885;52.830;13.788;2022-10-16T20:47:35;101749.72;;;12.52;69.80
21449;BME280;10885;52.830;13.788;2022-10-16T20:52:58;101756.72;;;12.55;69.80
21449;BME280;10885;52.830;13.788;2022-10-16T20:58:19;101757.06;;;12.60;69.78
21449;BME280;10885;52.830;13.788;2022-10-16T21:03:40;101751.91;;;12.60;69.68
21449;BME280;10885;52.830;13.788;2022-10-16T21:09:01;101762.97;;;12.59;69.55
21449;BME280;10885;52.830;13.788;2022-10-16T21:14:23;101758.00;;;12.48;69.70
21449;BME280;10885;52.830;13.788;2022-10-16T21:19:44;101762.03;;;12.45;69.80
21449;BME280;10885;52.830;13.788;2022-10-16T21:25:05;101771.44;;;12.44;69.46
21449;BME280;10885;52.830;13.788;2022-10-16T21:30:26;101764.63;;;12.45;69.66
21449;BME280;10885;52.830;13.788;2022-10-16T21:35:47;101763.09;;;12.35;69.93
21449;BME280;10885;52.830;13.788;2022-10-16T21:41:18;101784.19;;;12.43;70.06
21449;BME280;10885;52.830;13.788;2022-10-16T21:46:41;101795.63;;;12.34;69.88
21449;BME280;10885;52.830;13.788;2022-10-16T21:52:02;101808.59;;;12.36;69.63
21449;BME280;10885;52.830;13.788;2022-10-16T21:57:23;101815.50;;;12.37;69.93
